createdAt,value
2023-07-21T00:04:58.018Z,6.72
2023-07-21T00:15:20.354Z,4.88
2023-07-21T00:25:42.829Z,4.38
2023-07-21T00:36:06.231Z,4.53
2023-07-21T00:46:28.091Z,4.18
2023-07-21T00:56:50.341Z,3.85
2023-07-21T01:07:14.825Z,4.88
2023-07-21T01:17:38.867Z,6.70
2023-07-21T01:28:03.984Z,4.68
2023-07-21T01:38:26.198Z,4.85
2023-07-21T01:48:49.120Z,3.55
2023-07-21T01:59:12.490Z,2.72
2023-07-21T02:09:45.672Z,3.47
2023-07-21T02:20:26.694Z,3.20
2023-07-21T02:30:49.702Z,5.00
2023-07-21T02:41:11.872Z,3.90
2023-07-21T02:51:34.148Z,5.25
2023-07-21T03:01:58.909Z,4.28
2023-07-21T03:12:20.720Z,4.75
2023-07-21T03:22:46.214Z,4.03
2023-07-21T03:33:08.532Z,2.35
2023-07-21T03:43:30.155Z,3.78
2023-07-21T03:53:52.033Z,4.53
2023-07-21T04:04:14.615Z,3.38
2023-07-21T04:14:36.422Z,5.15
2023-07-21T04:24:58.231Z,5.82
2023-07-21T04:35:23.898Z,5.28
2023-07-21T04:45:45.638Z,4.57
2023-07-21T04:56:08.120Z,5.10
2023-07-21T05:06:29.828Z,3.85
2023-07-21T05:16:51.806Z,7.72
2023-07-21T05:27:13.751Z,4.85
2023-07-21T05:37:38.634Z,4.93
2023-07-21T05:48:00.617Z,6.30
2023-07-21T06:08:46.050Z,4.70
2023-07-21T06:19:07.611Z,5.50
2023-07-21T06:29:29.589Z,8.20
2023-07-21T06:39:52.717Z,10.85
2023-07-21T06:50:16.953Z,9.25
2023-07-21T07:00:38.981Z,13.85
2023-07-21T07:11:00.838Z,11.38
2023-07-21T07:21:23.118Z,11.27
2023-07-21T07:31:47.777Z,15.50
2023-07-21T07:42:09.626Z,14.52
2023-07-21T07:52:32.188Z,12.80
2023-07-21T08:02:54.159Z,16.13
2023-07-21T08:23:37.000Z,13.88
2023-07-21T08:33:59.057Z,13.88
2023-07-21T08:44:21.025Z,15.10
2023-07-21T08:54:45.173Z,12.93
2023-07-21T09:05:07.498Z,13.60
2023-07-21T09:15:29.420Z,13.85
2023-07-21T09:25:57.187Z,15.50
2023-07-21T09:36:19.050Z,15.73
2023-07-21T09:46:40.778Z,18.45
2023-07-21T10:07:24.263Z,14.32
2023-07-21T10:28:33.172Z,13.40
2023-07-21T10:39:01.804Z,12.43
2023-07-21T10:49:24.450Z,12.07
2023-07-21T10:59:46.162Z,9.60
2023-07-21T11:10:08.428Z,10.20
2023-07-21T11:20:32.049Z,11.45
2023-07-21T11:30:53.616Z,10.07
2023-07-21T11:41:15.755Z,13.73
2023-07-21T11:51:44.666Z,10.73
2023-07-21T12:02:08.502Z,9.68
2023-07-21T12:12:30.841Z,8.82
2023-07-21T12:22:52.910Z,9.45
2023-07-21T12:33:14.713Z,9.90
2023-07-21T12:43:37.406Z,9.55
2023-07-21T12:54:01.373Z,7.82
2023-07-21T13:04:23.626Z,8.45
2023-07-21T13:14:45.581Z,8.43
2023-07-21T13:25:08.238Z,5.90
2023-07-21T13:35:29.860Z,7.47
2023-07-21T13:45:51.932Z,9.80
2023-07-21T13:56:16.495Z,8.18
2023-07-21T14:06:39.301Z,9.07
2023-07-21T14:17:01.283Z,10.57
2023-07-21T14:27:22.924Z,12.30
2023-07-21T14:37:45.017Z,9.90
2023-07-21T14:48:07.527Z,8.88
2023-07-21T14:58:30.733Z,8.30
2023-07-21T15:08:52.633Z,9.25
2023-07-21T15:19:15.523Z,9.85
2023-07-21T15:29:37.640Z,8.20
2023-07-21T15:40:00.149Z,9.43
2023-07-21T15:50:21.847Z,9.50
2023-07-21T16:00:43.830Z,7.20
2023-07-21T16:11:06.619Z,8.38
2023-07-21T16:21:40.783Z,9.18
2023-07-21T16:32:03.076Z,8.65
2023-07-21T16:42:25.318Z,8.32
2023-07-21T16:52:47.835Z,9.25
2023-07-21T17:03:09.966Z,7.22
2023-07-21T17:13:31.940Z,8.55
2023-07-21T17:23:53.920Z,8.68
2023-07-21T17:34:15.737Z,8.52
2023-07-21T17:44:37.704Z,8.95
2023-07-21T17:54:59.555Z,7.38
2023-07-21T18:05:21.538Z,6.97
2023-07-21T18:15:43.624Z,7.85
2023-07-21T18:26:05.770Z,7.25
2023-07-21T18:36:27.358Z,5.38
2023-07-21T18:46:49.291Z,6.05
2023-07-21T18:57:10.935Z,5.60
2023-07-21T19:07:33.320Z,5.45
2023-07-21T19:17:55.892Z,6.47
2023-07-21T19:28:17.948Z,5.60
2023-07-21T19:38:40.109Z,3.88
2023-07-21T19:49:01.636Z,4.90
2023-07-21T19:59:23.422Z,4.40
2023-07-21T20:09:45.319Z,4.90
2023-07-21T20:20:07.925Z,4.75
2023-07-21T20:30:29.903Z,4.88
2023-07-21T20:40:52.071Z,5.35
2023-07-21T20:51:13.979Z,6.25
2023-07-21T21:01:35.842Z,5.53
2023-07-21T21:11:57.953Z,5.60
2023-07-21T21:22:20.000Z,5.40
2023-07-21T21:32:41.820Z,5.28
2023-07-21T21:43:04.111Z,6.43
2023-07-21T21:53:26.149Z,6.57
2023-07-21T22:03:51.448Z,5.78
2023-07-21T22:14:15.739Z,7.55
2023-07-21T22:24:37.766Z,7.03
2023-07-21T22:35:00.132Z,5.57
2023-07-21T22:45:21.886Z,5.90
2023-07-21T22:55:43.946Z,5.45
2023-07-21T23:06:06.238Z,6.28
2023-07-21T23:16:28.132Z,6.05
2023-07-21T23:26:50.373Z,5.60
2023-07-21T23:37:12.064Z,7.75
2023-07-21T23:47:53.456Z,7.20
2023-07-21T23:58:17.455Z,6.25
